createdAt,value
2018-06-13T00:13:49.737Z,65.80
2018-06-13T00:19:17.356Z,137.87
2018-06-13T00:21:57.417Z,175.47
2018-06-13T00:24:38.049Z,116.47
2018-06-13T00:27:18.873Z,96.77
2018-06-13T00:30:00.560Z,330.90
2018-06-13T00:44:34.957Z,572.30
2018-06-13T00:47:15.610Z,768.97
2018-06-13T00:49:59.958Z,744.80
2018-06-13T00:55:23.232Z,343.57
2018-06-13T00:58:03.994Z,418.03
2018-06-13T01:00:43.515Z,615.37
2018-06-13T01:03:26.271Z,109.60
2018-06-13T01:06:11.570Z,158.30
2018-06-13T01:08:52.832Z,111.77
2018-06-13T01:11:34.791Z,462.27
2018-06-13T01:14:12.435Z,996.90
2018-06-13T01:16:49.918Z,1095.93
2018-06-13T01:19:29.232Z,869.20
2018-06-13T01:22:10.050Z,1125.40
2018-06-13T01:24:50.013Z,1220.87
2018-06-13T01:27:30.014Z,1262.03
2018-06-13T01:30:12.233Z,1189.57
2018-06-13T01:32:51.272Z,1134.33
2018-06-13T01:35:31.355Z,1191.80
2018-06-13T01:38:11.352Z,629.60
2018-06-13T01:40:51.654Z,1017.43
2018-06-13T01:43:32.154Z,1028.50
2018-06-13T01:46:18.129Z,1157.93
2018-06-13T22:35:14.893Z,581.13
2018-06-13T22:38:00.834Z,232.30
2018-06-13T22:40:44.713Z,175.87
2018-06-13T22:43:26.371Z,189.93
2018-06-13T22:46:05.774Z,278.47
2018-06-13T22:51:28.574Z,537.13
2018-06-13T22:54:09.635Z,631.13
2018-06-13T22:56:50.913Z,854.30
2018-06-13T22:59:31.209Z,936.03
2018-06-13T23:02:14.409Z,991.47
2018-06-13T23:04:53.872Z,1043.27
2018-06-13T23:07:33.011Z,1021.60
2018-06-13T23:10:15.157Z,1165.00
2018-06-13T23:12:54.852Z,1076.93
2018-06-13T23:15:35.497Z,1042.13
2018-06-13T23:18:13.894Z,1246.70
2018-06-13T23:21:03.879Z,1266.40
2018-06-13T23:23:41.712Z,1299.03
2018-06-13T23:26:21.137Z,1243.50
2018-06-13T23:29:02.214Z,1157.03
2018-06-13T23:31:40.991Z,1333.13
2018-06-13T23:34:21.410Z,1343.03
2018-06-13T23:37:09.770Z,1350.87
2018-06-13T23:39:48.170Z,1360.23
2018-06-13T23:42:29.514Z,1363.63
2018-06-13T23:45:08.674Z,1368.33
2018-06-13T23:47:47.674Z,1362.10
2018-06-13T23:50:27.772Z,1375.17
2018-06-13T23:53:16.234Z,1378.23
2018-06-13T23:55:53.755Z,1349.37
2018-06-13T23:58:32.770Z,1394.60
